Time;durP1;ratioP1;P1;durP2;ratioP2;P2;SDS_P1;SDS_P2;PMS_P1;PMS_P2;Temp;Humidity;BMP_temperature;BMP_pressure;BME280_temperature;BME280_humidity;BME280_pressure;Samples;Min_cycle;Max_cycle;Signal;HPM_P1;HPM_P2
2023/07/27 00:00:21;;;;;;;3.17;2.90;;;17.60;49.40;;;;;;20563;6824;278026;-75
2023/07/27 00:02:47;;;;;;;3.10;2.90;;;17.50;48.90;;;;;;20789;6824;121905;-76
2023/07/27 00:05:14;;;;;;;3.28;2.97;;;17.50;48.90;;;;;;20571;6824;307411;-76
2023/07/27 00:07:39;;;;;;;2.70;2.60;;;17.50;49.20;;;;;;20748;6824;119112;-75
2023/07/27 00:10:04;;;;;;;3.50;2.60;;;17.50;49.20;;;;;;20791;6824;117041;-75
2023/07/27 00:12:30;;;;;;;3.30;3.10;;;17.40;49.80;;;;;;20578;6824;312594;-75
2023/07/27 00:14:55;;;;;;;3.10;2.90;;;17.40;49.70;;;;;;20571;6824;307068;-76
2023/07/27 00:17:21;;;;;;;3.10;2.90;;;17.70;49.00;;;;;;20550;6824;277469;-76
2023/07/27 00:19:47;;;;;;;3.17;2.90;;;18.00;48.60;;;;;;20782;6824;118504;-75
2023/07/27 00:22:12;;;;;;;3.40;3.20;;;17.80;48.90;;;;;;20561;6824;295479;-76
2023/07/27 00:24:38;;;;;;;3.67;3.47;;;17.70;49.40;;;;;;20783;6824;116988;-75
2023/07/27 00:27:03;;;;;;;3.67;3.43;;;17.60;49.70;;;;;;20789;6824;118376;-76
2023/07/27 00:29:29;;;;;;;4.20;3.90;;;17.20;50.10;;;;;;20555;6824;293414;-76
2023/07/27 00:31:56;;;;;;;4.43;4.00;;;17.30;50.60;;;;;;20576;6824;307508;-76
2023/07/27 00:34:21;;;;;;;4.40;4.10;;;17.50;50.90;;;;;;20782;6824;117326;-76
2023/07/27 00:36:47;;;;;;;3.73;3.53;;;17.40;50.90;;;;;;20788;6824;117959;-76
2023/07/27 00:39:13;;;;;;;4.10;3.90;;;17.10;51.40;;;;;;20554;6824;310671;-75
2023/07/27 00:41:42;;;;;;;3.50;3.30;;;17.20;51.60;;;;;;20760;6822;117459;-76
2023/07/27 00:44:07;;;;;;;3.73;3.53;;;17.10;51.60;;;;;;20779;6823;118806;-76
2023/07/27 00:46:33;;;;;;;4.20;3.90;;;16.80;52.00;;;;;;20550;6823;337015;-78
2023/07/27 00:48:58;;;;;;;3.83;3.47;;;17.00;52.40;;;;;;20775;6823;117649;-75
2023/07/27 00:51:24;;;;;;;4.50;4.20;;;17.00;52.30;;;;;;20543;6824;298619;-76
2023/07/27 00:53:49;;;;;;;4.53;4.22;;;17.20;52.00;;;;;;20567;6824;278450;-76
2023/07/27 00:56:17;;;;;;;3.97;3.75;;;17.70;50.90;;;;;;20580;6824;306574;-76
2023/07/27 00:58:43;;;;;;;4.83;4.43;;;17.60;50.80;;;;;;20568;6824;291708;-76
2023/07/27 01:01:09;;;;;;;3.83;3.53;;;17.50;50.60;;;;;;20765;6824;116954;-76
2023/07/27 01:03:35;;;;;;;4.50;4.20;;;17.50;51.30;;;;;;20529;6824;307414;-75
2023/07/27 01:06:01;;;;;;;4.33;4.03;;;17.40;51.00;;;;;;20560;6824;315429;-76
2023/07/27 01:08:27;;;;;;;4.33;3.90;;;17.30;50.90;;;;;;20771;6824;118266;-76
2023/07/27 01:11:02;;;;;;;4.30;4.00;;;17.30;51.40;;;;;;20557;6824;336457;-76
2023/07/27 01:13:31;;;;;;;4.40;4.00;;;17.30;51.30;;;;;;20503;6824;307597;-75
2023/07/27 01:16:01;;;;;;;3.80;3.60;;;17.40;51.20;;;;;;20748;6824;117265;-75
2023/07/27 01:18:27;;;;;;;5.70;3.60;;;16.80;52.00;;;;;;20684;6824;117429;-75
2023/07/27 01:21:12;;;;;;;3.70;3.40;;;16.80;52.00;;;;;;20728;6824;118201;-75
2023/07/27 01:23:51;;;;;;;4.27;3.90;;;16.50;52.40;;;;;;20507;6824;277928;-76
2023/07/27 01:26:42;;;;;;;4.32;3.97;;;16.50;52.70;;;;;;20518;6824;309305;-75
2023/07/27 01:29:27;;;;;;;4.07;3.77;;;16.80;52.40;;;;;;20768;6824;117566;-76
2023/07/27 01:31:53;;;;;;;4.63;4.20;;;16.60;52.40;;;;;;20517;6824;311558;-76
2023/07/27 01:34:32;;;;;;;3.90;3.70;;;16.60;52.50;;;;;;20765;6824;116932;-75
2023/07/27 01:37:03;;;;;;;4.65;4.32;;;16.40;53.00;;;;;;20539;6824;336964;-76
2023/07/27 01:39:29;;;;;;;4.72;4.43;;;16.50;53.00;;;;;;20537;6824;306257;-76
2023/07/27 01:41:54;;;;;;;4.50;3.83;;;16.70;52.70;;;;;;20754;6824;118432;-76
2023/07/27 01:44:20;;;;;;;4.90;4.00;;;16.50;52.80;;;;;;20556;6824;277907;-76
2023/07/27 01:46:46;;;;;;;4.20;3.93;;;16.50;53.10;;;;;;20542;6824;284473;-76
2023/07/27 01:49:12;;;;;;;3.80;3.50;;;16.70;52.50;;;;;;20769;6824;118269;-76
2023/07/27 01:51:38;;;;;;;3.83;3.60;;;16.50;52.70;;;;;;20743;6822;120759;-76
2023/07/27 01:54:04;;;;;;;3.70;3.50;;;15.90;54.30;;;;;;20761;6823;121669;-75
2023/07/27 01:56:31;;;;;;;3.80;3.50;;;15.90;53.60;;;;;;20767;6823;116865;-75
2023/07/27 01:58:57;;;;;;;3.50;3.30;;;15.40;54.10;;;;;;20777;6823;117248;-76
2023/07/27 02:01:23;;;;;;;3.50;3.13;;;15.40;54.10;;;;;;20754;6823;118233;-78
2023/07/27 02:03:49;;;;;;;3.92;3.62;;;15.30;54.30;;;;;;20548;6824;307006;-76
2023/07/27 02:06:14;;;;;;;3.70;3.50;;;15.50;54.20;;;;;;20774;6824;118921;-75
2023/07/27 02:08:40;;;;;;;4.32;3.92;;;15.50;54.10;;;;;;20556;6824;340545;-76
2023/07/27 02:11:05;;;;;;;4.57;4.17;;;15.70;53.80;;;;;;20558;6824;278445;-75
2023/07/27 02:13:35;;;;;;;4.47;4.07;;;16.30;52.90;;;;;;20528;6824;336966;-76
2023/07/27 02:16:04;;;;;;;4.33;3.70;;;16.30;52.80;;;;;;20760;6824;117214;-76
2023/07/27 02:18:30;;;;;;;4.50;4.20;;;16.10;53.20;;;;;;20225;6824;280187;-76
2023/07/27 02:20:55;;;;;;;4.40;4.20;;;16.10;53.10;;;;;;20555;6824;311942;-76
2023/07/27 02:23:21;;;;;;;4.10;3.70;;;16.30;52.70;;;;;;20528;6824;308651;-75
2023/07/27 02:25:48;;;;;;;3.33;3.13;;;16.50;52.50;;;;;;20773;6824;117283;-75
2023/07/27 02:28:13;;;;;;;4.03;3.73;;;16.30;52.70;;;;;;20541;6824;277697;-76
2023/07/27 02:30:39;;;;;;;3.60;3.40;;;16.30;52.80;;;;;;20772;6824;118217;-75
2023/07/27 02:33:07;;;;;;;3.90;3.60;;;16.20;53.50;;;;;;20544;6824;311067;-75
2023/07/27 02:35:32;;;;;;;4.18;3.90;;;16.20;53.00;;;;;;20532;6824;336924;-75
2023/07/27 02:37:58;;;;;;;3.80;3.60;;;16.40;52.50;;;;;;20520;6824;280317;-77
2023/07/27 02:40:23;;;;;;;4.00;3.70;;;16.60;52.30;;;;;;20568;6824;308135;-77
2023/07/27 02:42:49;;;;;;;3.53;3.33;;;16.70;51.40;;;;;;20790;6824;117054;-77
2023/07/27 02:45:14;;;;;;;4.07;3.78;;;16.50;51.80;;;;;;20571;6824;306820;-77
2023/07/27 02:47:41;;;;;;;3.62;3.42;;;16.70;50.90;;;;;;20579;6824;293985;-77
2023/07/27 02:50:07;;;;;;;3.50;3.30;;;16.80;51.00;;;;;;20574;6824;277957;-77
2023/07/27 02:52:33;;;;;;;4.10;3.20;;;17.10;50.70;;;;;;20574;6824;309682;-76
2023/07/27 02:54:59;;;;;;;2.50;2.40;;;17.20;50.70;;;;;;20791;6824;116922;-77
2023/07/27 02:57:24;;;;;;;3.33;3.12;;;17.00;51.10;;;;;;20538;6824;338767;-77
2023/07/27 02:59:50;;;;;;;3.17;2.87;;;17.00;50.80;;;;;;20790;6824;117668;-77
2023/07/27 03:02:15;;;;;;;3.03;2.90;;;16.90;51.20;;;;;;20568;6824;306542;-77
2023/07/27 03:04:41;;;;;;;3.00;2.80;;;16.90;50.90;;;;;;20839;6822;117147;-77
2023/07/27 03:07:06;;;;;;;3.00;2.80;;;16.90;51.20;;;;;;20877;6823;90145;-77
2023/07/27 03:09:32;;;;;;;3.37;3.00;;;16.60;51.60;;;;;;20567;6823;279054;-77
2023/07/27 03:11:58;;;;;;;3.20;3.00;;;16.70;51.50;;;;;;20569;6823;279232;-77
2023/07/27 03:14:23;;;;;;;2.60;2.50;;;17.10;50.60;;;;;;20776;6824;116986;-77
2023/07/27 03:16:49;;;;;;;3.03;2.72;;;16.90;50.70;;;;;;20786;6824;116838;-77
2023/07/27 03:19:14;;;;;;;3.42;3.22;;;16.60;51.10;;;;;;20566;6824;277131;-77
2023/07/27 03:21:41;;;;;;;2.75;2.55;;;16.80;50.90;;;;;;20767;6824;117053;-77
2023/07/27 03:24:05;;;;;;;2.70;2.50;;;16.70;51.10;;;;;;20779;6824;120878;-78
2023/07/27 03:26:31;;;;;;;2.93;2.50;;;16.50;51.60;;;;;;20791;6824;120814;-77
2023/07/27 03:28:57;;;;;;;2.37;2.27;;;16.20;52.30;;;;;;20786;6824;120913;-78
2023/07/27 03:31:23;;;;;;;2.80;2.70;;;16.10;52.10;;;;;;20757;6824;117489;-77
2023/07/27 03:33:48;;;;;;;6.80;6.22;;;16.10;52.40;;;;;;20569;6824;306558;-75
2023/07/27 03:36:14;;;;;;;4.50;4.20;;;16.30;51.90;;;;;;20564;6824;311179;-76
2023/07/27 03:38:40;;;;;;;3.10;2.90;;;16.80;51.40;;;;;;20562;6824;307813;-75
2023/07/27 03:41:05;;;;;;;2.93;2.60;;;17.10;50.30;;;;;;20774;6824;117272;-75
2023/07/27 03:43:31;;;;;;;2.87;2.77;;;17.00;50.50;;;;;;20527;6824;312049;-75
2023/07/27 03:45:56;;;;;;;2.60;2.50;;;17.10;50.50;;;;;;20774;6824;117124;-75
2023/07/27 03:48:22;;;;;;;3.50;2.87;;;17.00;50.70;;;;;;20775;6824;116889;-77
2023/07/27 03:50:47;;;;;;;2.50;2.40;;;16.80;51.10;;;;;;20820;6824;117067;-77
2023/07/27 03:53:13;;;;;;;2.72;2.60;;;16.60;51.40;;;;;;20613;6824;280338;-77
2023/07/27 03:55:38;;;;;;;2.50;2.33;;;16.80;50.80;;;;;;20790;6824;116501;-77
2023/07/27 03:58:04;;;;;;;2.53;2.33;;;16.80;50.90;;;;;;20800;6824;117003;-77
2023/07/27 04:00:30;;;;;;;2.90;2.70;;;16.70;51.30;;;;;;20607;6824;307056;-77
2023/07/27 04:02:55;;;;;;;2.67;2.58;;;16.80;50.90;;;;;;20823;6824;117403;-77
2023/07/27 04:05:21;;;;;;;2.57;2.37;;;16.80;51.10;;;;;;20804;6824;117446;-78
2023/07/27 04:07:49;;;;;;;3.20;2.90;;;16.80;51.20;;;;;;20613;6824;305967;-78
2023/07/27 04:10:13;;;;;;;3.67;2.60;;;16.80;51.10;;;;;;20809;6824;116965;-77
2023/07/27 04:12:38;;;;;;;2.83;2.72;;;16.80;51.30;;;;;;20604;6824;336156;-78
2023/07/27 04:15:04;;;;;;;2.70;2.60;;;16.90;51.20;;;;;;20602;6822;279377;-78
2023/07/27 04:17:30;;;;;;;2.90;2.70;;;17.20;50.20;;;;;;20580;6823;306271;-77
2023/07/27 04:19:56;;;;;;;2.77;2.43;;;17.30;50.10;;;;;;20810;6823;116315;-78
2023/07/27 04:22:23;;;;;;;2.73;2.63;;;17.30;50.10;;;;;;20813;6823;116000;-77
2023/07/27 04:24:49;;;;;;;2.50;2.30;;;17.00;50.70;;;;;;20793;6823;117361;-77
2023/07/27 04:27:14;;;;;;;3.22;2.80;;;16.80;51.20;;;;;;20589;6824;336876;-78
2023/07/27 04:29:40;;;;;;;2.80;2.60;;;17.30;51.10;;;;;;20586;6824;282644;-77
2023/07/27 04:32:08;;;;;;;2.77;2.60;;;17.30;51.10;;;;;;20590;6824;305208;-77
2023/07/27 04:34:33;;;;;;;2.80;2.60;;;17.60;50.20;;;;;;20586;6824;306939;-78
2023/07/27 04:36:59;;;;;;;3.23;2.77;;;17.80;49.50;;;;;;20586;6824;277125;-77
2023/07/27 04:39:24;;;;;;;2.97;2.77;;;18.00;49.30;;;;;;20567;6824;293849;-77
2023/07/27 04:41:50;;;;;;;2.73;2.53;;;17.90;49.60;;;;;;20792;6824;117658;-78
2023/07/27 04:44:16;;;;;;;2.53;2.20;;;17.80;49.50;;;;;;20788;6824;116577;-77
2023/07/27 04:46:42;;;;;;;2.65;2.50;;;17.50;50.20;;;;;;20583;6824;337124;-77
2023/07/27 04:49:09;;;;;;;3.15;2.83;;;17.60;50.10;;;;;;20599;6824;276503;-78
2023/07/27 04:51:34;;;;;;;2.80;2.60;;;17.90;49.40;;;;;;20797;6824;117122;-77
2023/07/27 04:54:00;;;;;;;2.87;2.60;;;17.80;49.60;;;;;;20621;6824;306564;-77
2023/07/27 04:56:27;;;;;;;3.10;2.80;;;17.80;49.80;;;;;;20829;6824;116054;-78
2023/07/27 04:58:52;;;;;;;2.97;2.60;;;17.80;50.00;;;;;;20592;6824;278038;-78
2023/07/27 05:01:18;;;;;;;2.80;2.60;;;17.80;49.60;;;;;;20811;6824;117172;-77
2023/07/27 05:03:43;;;;;;;3.20;2.40;;;17.80;49.90;;;;;;20559;6824;277902;-78
2023/07/27 05:06:09;;;;;;;2.80;2.60;;;17.90;49.60;;;;;;20620;6824;276058;-77
2023/07/27 05:08:34;;;;;;;2.90;2.60;;;18.20;49.50;;;;;;20618;6824;310148;-77
2023/07/27 05:11:00;;;;;;;2.90;2.60;;;18.40;49.20;;;;;;20606;6824;292231;-78
2023/07/27 05:13:26;;;;;;;2.60;2.50;;;18.50;49.20;;;;;;20799;6824;118011;-77
2023/07/27 05:15:52;;;;;;;2.50;2.40;;;18.10;50.10;;;;;;20829;6824;116421;-79
2023/07/27 05:18:18;;;;;;;2.00;1.90;;;18.00;50.00;;;;;;20790;6824;123232;-78
2023/07/27 05:20:43;;;;;;;2.23;2.13;;;17.80;50.40;;;;;;20786;6824;117688;-77
2023/07/27 05:23:10;;;;;;;2.73;2.23;;;17.60;50.70;;;;;;20791;6824;117237;-78
2023/07/27 05:25:36;;;;;;;2.10;2.00;;;17.50;51.00;;;;;;20799;6824;116854;-81
2023/07/27 05:28:02;;;;;;;2.43;2.30;;;17.40;51.20;;;;;;20819;6822;118052;-77
2023/07/27 05:30:27;;;;;;;2.40;2.30;;;17.30;52.20;;;;;;20820;6823;116524;-80
2023/07/27 05:32:52;;;;;;;3.07;2.40;;;17.30;51.60;;;;;;20804;6823;116892;-79
2023/07/27 05:35:18;;;;;;;2.97;2.78;;;17.20;51.70;;;;;;20589;6823;278394;-77
2023/07/27 05:37:46;;;;;;;2.50;2.30;;;17.50;51.30;;;;;;20787;6824;116309;-80
2023/07/27 05:40:10;;;;;;;2.97;2.80;;;17.60;51.20;;;;;;20558;6824;307007;-76
2023/07/27 05:42:36;;;;;;;3.03;2.80;;;17.80;50.90;;;;;;20792;6824;116999;-72
2023/07/27 05:45:02;;;;;;;2.92;2.53;;;17.70;51.50;;;;;;20792;6824;117480;-73
2023/07/27 05:47:31;;;;;;;3.00;2.80;;;17.70;51.50;;;;;;20555;6824;307677;-72
2023/07/27 05:49:58;;;;;;;2.60;2.40;;;17.90;52.00;;;;;;20790;6824;116622;-72
2023/07/27 05:52:23;;;;;;;3.10;2.90;;;17.90;52.00;;;;;;20572;6824;311128;-72
2023/07/27 05:54:48;;;;;;;3.50;3.20;;;18.00;51.80;;;;;;20533;6824;307066;-72
2023/07/27 05:57:15;;;;;;;3.42;3.20;;;18.20;51.50;;;;;;20777;6824;121422;-74
2023/07/27 05:59:40;;;;;;;3.10;2.90;;;18.20;51.50;;;;;;20759;6824;118825;-74
2023/07/27 06:02:06;;;;;;;3.63;3.43;;;17.90;51.80;;;;;;20563;6824;309849;-74
2023/07/27 06:04:32;;;;;;;5.93;3.40;;;17.90;52.80;;;;;;20788;6824;117086;-73
2023/07/27 06:06:58;;;;;;;3.80;3.50;;;18.00;51.90;;;;;;20579;6824;306529;-73
2023/07/27 06:09:25;;;;;;;7.03;3.07;;;17.90;52.00;;;;;;20758;6824;117818;-73
2023/07/27 06:11:51;;;;;;;3.33;3.13;;;17.60;52.30;;;;;;20781;6824;118799;-74
2023/07/27 06:14:17;;;;;;;3.93;3.57;;;17.60;52.20;;;;;;20562;6824;307975;-73
2023/07/27 06:16:43;;;;;;;3.87;3.67;;;18.00;52.10;;;;;;20568;6824;278147;-73
2023/07/27 06:19:09;;;;;;;4.87;4.37;;;18.00;52.10;;;;;;20566;6824;306942;-73
2023/07/27 06:21:34;;;;;;;4.47;4.07;;;18.30;51.60;;;;;;20740;6824;118990;-75
2023/07/27 06:24:14;;;;;;;3.97;3.67;;;18.20;51.80;;;;;;20526;6824;328791;-74
2023/07/27 06:26:42;;;;;;;3.77;3.53;;;18.20;52.30;;;;;;20771;6824;117020;-74
2023/07/27 06:29:09;;;;;;;3.97;3.70;;;18.20;52.20;;;;;;20501;6824;311531;-72
2023/07/27 06:31:35;;;;;;;3.75;3.55;;;18.50;52.20;;;;;;20543;6824;337608;-72
2023/07/27 06:34:00;;;;;;;3.40;3.20;;;18.50;52.00;;;;;;20774;6824;123525;-72
2023/07/27 06:36:27;;;;;;;4.10;3.90;;;18.50;52.10;;;;;;20561;6824;294882;-73
2023/07/27 06:38:53;;;;;;;3.70;3.40;;;18.60;52.10;;;;;;20777;6822;116907;-73
2023/07/27 06:41:25;;;;;;;3.80;3.50;;;18.50;52.20;;;;;;20561;6823;307428;-73
2023/07/27 06:43:47;;;;;;;3.65;3.45;;;18.60;52.50;;;;;;20552;6823;306943;-73
2023/07/27 06:46:12;;;;;;;4.07;3.73;;;18.90;52.20;;;;;;20561;6823;294352;-73
2023/07/27 06:48:38;;;;;;;3.23;3.00;;;19.10;52.10;;;;;;20784;6824;121087;-73
2023/07/27 06:51:03;;;;;;;3.00;2.90;;;19.00;52.20;;;;;;20774;6824;116957;-72
2023/07/27 06:53:29;;;;;;;3.27;3.07;;;18.90;52.90;;;;;;20545;6824;307826;-72
2023/07/27 06:55:55;;;;;;;3.20;3.00;;;19.10;53.20;;;;;;20778;6824;117207;-72
2023/07/27 06:58:20;;;;;;;4.50;3.03;;;19.20;53.30;;;;;;20563;6824;293015;-73
2023/07/27 07:00:46;;;;;;;4.00;3.50;;;19.50;52.70;;;;;;20566;6824;336827;-72
2023/07/27 07:03:18;;;;;;;3.27;2.97;;;19.90;53.00;;;;;;20779;6824;117047;-72
2023/07/27 07:05:45;;;;;;;3.20;3.00;;;19.90;52.70;;;;;;20527;6824;289106;-72
2023/07/27 07:08:11;;;;;;;3.05;2.85;;;20.10;51.20;;;;;;20546;6824;291594;-73
2023/07/27 07:10:36;;;;;;;3.83;2.63;;;20.30;50.30;;;;;;20748;6824;116953;-73
2023/07/27 07:13:03;;;;;;;2.97;2.80;;;20.20;50.50;;;;;;20538;6824;307349;-73
2023/07/27 07:15:29;;;;;;;3.35;3.10;;;20.30;50.80;;;;;;20523;6824;307457;-73
2023/07/27 07:17:55;;;;;;;3.23;2.87;;;20.30;50.80;;;;;;20766;6824;122085;-72
2023/07/27 07:20:21;;;;;;;3.20;2.90;;;20.30;50.80;;;;;;20552;6824;307413;-72
2023/07/27 07:22:47;;;;;;;2.73;2.60;;;20.20;51.30;;;;;;20724;6824;121064;-72
2023/07/27 07:25:13;;;;;;;3.40;3.20;;;20.20;51.30;;;;;;20506;6824;312808;-73
2023/07/27 07:27:38;;;;;;;2.97;2.87;;;20.20;51.50;;;;;;20702;6839;120570;-72
2023/07/27 07:30:04;;;;;;;3.47;3.17;;;20.20;51.90;;;;;;20506;6839;276999;-71
2023/07/27 07:32:31;;;;;;;2.80;2.70;;;20.20;52.20;;;;;;20703;6839;117198;-72
2023/07/27 07:34:57;;;;;;;2.60;2.50;;;20.30;52.50;;;;;;20720;6836;122793;-72
2023/07/27 07:37:22;;;;;;;3.00;2.80;;;20.10;52.70;;;;;;20488;6836;337051;-72
2023/07/27 07:39:53;;;;;;;3.10;2.90;;;20.30;52.70;;;;;;20733;6836;117642;-72
2023/07/27 07:42:19;;;;;;;2.73;2.53;;;20.40;52.90;;;;;;20666;6853;117918;-71
2023/07/27 07:44:48;;;;;;;4.35;2.87;;;20.20;52.70;;;;;;20712;6839;117066;-72
2023/07/27 07:47:14;;;;;;;3.00;2.70;;;20.10;52.90;;;;;;20711;6835;117316;-71
2023/07/27 07:49:39;;;;;;;2.62;2.50;;;20.00;52.90;;;;;;20709;6833;119096;-72
2023/07/27 07:52:06;;;;;;;3.03;2.83;;;19.90;53.60;;;;;;20485;6833;306408;-73
2023/07/27 07:54:35;;;;;;;3.30;2.97;;;20.10;52.40;;;;;;20730;6833;118332;-73
2023/07/27 07:56:58;;;;;;;3.10;2.90;;;20.20;52.30;;;;;;20711;6833;117500;-73
2023/07/27 07:59:23;;;;;;;2.83;2.45;;;20.10;52.40;;;;;;20684;6833;118630;-73
2023/07/27 08:01:49;;;;;;;3.00;2.80;;;20.00;52.50;;;;;;20518;6834;277967;-72
2023/07/27 08:04:14;;;;;;;4.20;3.20;;;20.20;52.40;;;;;;20517;6835;295419;-72
2023/07/27 08:06:40;;;;;;;2.92;2.75;;;20.60;52.20;;;;;;20722;6835;119504;-73
2023/07/27 08:09:06;;;;;;;3.30;3.00;;;20.70;51.60;;;;;;20517;6834;278529;-73
2023/07/27 08:11:32;;;;;;;3.63;3.17;;;20.70;51.60;;;;;;20493;6834;306152;-73
2023/07/27 08:14:00;;;;;;;2.92;2.72;;;20.90;51.20;;;;;;20676;6834;117725;-72
2023/07/27 08:16:23;;;;;;;4.87;2.93;;;20.90;51.50;;;;;;20725;6834;117940;-73
2023/07/27 08:18:48;;;;;;;3.20;3.00;;;20.70;51.90;;;;;;20515;6834;281962;-73
2023/07/27 08:21:14;;;;;;;4.00;3.23;;;20.80;51.20;;;;;;20482;6834;289496;-72
2023/07/27 08:23:40;;;;;;;3.10;2.90;;;21.10;51.00;;;;;;20470;6834;277237;-73
2023/07/27 08:26:08;;;;;;;3.25;2.95;;;21.50;50.60;;;;;;20514;6834;335562;-74
2023/07/27 08:28:34;;;;;;;3.07;2.87;;;21.70;49.70;;;;;;20727;6834;118880;-72
2023/07/27 08:31:03;;;;;;;2.95;2.75;;;21.60;49.90;;;;;;20501;6834;338453;-73
2023/07/27 08:33:32;;;;;;;2.83;2.63;;;21.60;49.90;;;;;;20705;6834;144910;-72
2023/07/27 08:36:02;;;;;;;4.60;3.10;;;21.50;50.40;;;;;;20494;6834;278843;-73
2023/07/27 08:38:27;;;;;;;3.40;3.10;;;21.50;50.30;;;;;;20487;6834;335746;-73
2023/07/27 08:40:59;;;;;;;3.03;2.70;;;21.70;50.00;;;;;;20726;6834;117335;-74
2023/07/27 08:43:25;;;;;;;2.50;2.40;;;21.60;50.10;;;;;;20648;6834;120598;-73
2023/07/27 08:45:50;;;;;;;2.80;2.58;;;21.30;50.60;;;;;;20728;6834;117206;-74
2023/07/27 08:48:17;;;;;;;3.13;2.93;;;21.30;50.30;;;;;;20522;6834;310385;-73
2023/07/27 08:50:42;;;;;;;3.10;2.97;;;21.30;50.30;;;;;;20735;6834;117898;-74
2023/07/27 08:53:09;;;;;;;3.03;2.73;;;21.30;50.20;;;;;;20523;6834;309569;-74
2023/07/27 08:55:34;;;;;;;2.80;2.60;;;21.50;49.60;;;;;;20690;6834;143787;-74
2023/07/27 08:58:00;;;;;;;3.55;2.70;;;21.50;50.00;;;;;;20739;6834;117148;-74
2023/07/27 09:00:26;;;;;;;2.60;2.50;;;21.40;50.40;;;;;;20707;6832;119178;-74
2023/07/27 09:02:52;;;;;;;2.78;2.60;;;21.40;49.50;;;;;;20538;6833;276654;-74
2023/07/27 09:05:17;;;;;;;3.23;2.93;;;21.40;49.70;;;;;;20528;6833;306998;-73
2023/07/27 09:07:44;;;;;;;2.95;2.70;;;22.00;51.00;;;;;;20501;6833;325656;-74
2023/07/27 09:10:10;;;;;;;3.08;2.87;;;21.90;50.30;;;;;;20497;6834;315412;-76
2023/07/27 09:12:35;;;;;;;3.57;2.90;;;22.20;49.50;;;;;;20513;6834;308293;-75
2023/07/27 09:15:14;;;;;;;3.03;2.80;;;22.40;49.70;;;;;;20527;6834;306139;-75
2023/07/27 09:17:39;;;;;;;3.20;2.90;;;22.60;50.10;;;;;;20493;6834;288865;-77
2023/07/27 09:20:10;;;;;;;3.00;2.80;;;22.70;50.00;;;;;;20528;6834;297923;-77
2023/07/27 09:22:34;;;;;;;3.60;2.60;;;22.90;48.70;;;;;;20724;6834;117389;-76
2023/07/27 09:25:03;;;;;;;2.73;2.53;;;22.80;49.30;;;;;;20730;6834;118361;-75
2023/07/27 09:27:28;;;;;;;2.97;2.78;;;22.60;50.10;;;;;;20507;6834;309947;-77
2023/07/27 09:29:57;;;;;;;3.45;2.72;;;22.70;50.00;;;;;;20683;6834;118148;-75
2023/07/27 09:32:22;;;;;;;2.90;2.70;;;22.70;50.20;;;;;;20491;6834;295082;-76
2023/07/27 09:34:48;;;;;;;4.47;2.87;;;22.80;49.70;;;;;;20521;6834;282442;-75
2023/07/27 09:37:14;;;;;;;3.58;3.00;;;23.00;49.70;;;;;;20487;6834;277460;-76
2023/07/27 09:39:43;;;;;;;2.97;2.70;;;23.20;48.50;;;;;;20499;6834;466364;-75
2023/07/27 09:42:06;;;;;;;3.53;2.70;;;23.40;48.30;;;;;;20506;6834;315968;-76
2023/07/27 09:44:33;;;;;;;2.72;2.50;;;23.50;48.30;;;;;;20732;6834;116905;-76
2023/07/27 09:46:58;;;;;;;2.43;2.20;;;23.20;48.40;;;;;;20682;6834;117867;-76
2023/07/27 09:49:24;;;;;;;2.67;2.12;;;22.80;48.40;;;;;;20717;6834;118448;-76
2023/07/27 09:51:50;;;;;;;2.75;2.00;;;22.20;48.60;;;;;;20724;6834;117211;-76
2023/07/27 09:54:16;;;;;;;2.05;1.95;;;22.20;48.80;;;;;;20512;6834;278054;-75
2023/07/27 09:56:41;;;;;;;2.62;1.95;;;22.30;47.30;;;;;;20519;6834;277737;-75
2023/07/27 09:59:08;;;;;;;2.23;2.03;;;22.70;46.70;;;;;;20516;6834;311456;-74
2023/07/27 10:01:34;;;;;;;2.70;2.30;;;22.70;46.70;;;;;;20498;6834;305351;-76
2023/07/27 10:03:59;;;;;;;2.97;2.20;;;22.90;47.30;;;;;;20521;6834;306457;-76
2023/07/27 10:06:25;;;;;;;2.55;2.17;;;22.80;47.50;;;;;;20729;6834;123095;-73
2023/07/27 10:08:52;;;;;;;1.90;1.80;;;22.50;48.40;;;;;;20732;6834;116937;-76
2023/07/27 10:11:17;;;;;;;2.33;2.13;;;22.50;48.00;;;;;;20521;6834;313371;-76
2023/07/27 10:13:43;;;;;;;2.70;2.30;;;22.60;48.10;;;;;;20501;6832;304260;-74
2023/07/27 10:16:12;;;;;;;2.20;2.00;;;22.70;48.10;;;;;;20547;6833;295946;-79
2023/07/27 10:18:38;;;;;;;2.57;2.37;;;22.90;47.80;;;;;;20519;6833;307243;-78
2023/07/27 10:21:20;;;;;;;3.33;2.27;;;23.20;47.70;;;;;;20520;6833;278927;-80
2023/07/27 10:23:59;;;;;;;3.10;2.20;;;23.20;47.70;;;;;;20554;6834;303733;-80
2023/07/27 10:26:52;;;;;;;2.43;2.27;;;23.00;48.80;;;;;;20760;6834;116109;-80
2023/07/27 10:29:21;;;;;;;2.37;2.03;;;23.00;48.80;;;;;;20749;6834;117641;-79
2023/07/27 10:32:02;;;;;;;3.12;2.30;;;22.60;49.20;;;;;;20532;6834;306474;-76
2023/07/27 10:34:28;;;;;;;2.20;2.00;;;22.60;49.20;;;;;;20739;6834;117394;-79
2023/07/27 10:36:57;;;;;;;2.22;2.08;;;22.50;49.60;;;;;;20736;6834;116976;-79
2023/07/27 10:39:29;;;;;;;2.50;2.30;;;22.30;50.00;;;;;;20694;6834;126682;-79
2023/07/27 10:42:04;;;;;;;1.90;1.80;;;22.20;50.40;;;;;;20724;6834;116449;-80
2023/07/27 10:44:43;;;;;;;2.60;1.77;;;22.10;50.70;;;;;;20736;6834;116876;-77
2023/07/27 10:47:08;;;;;;;2.23;2.13;;;22.00;50.80;;;;;;20513;6834;306965;-76
2023/07/27 10:49:44;;;;;;;2.92;2.35;;;22.30;50.00;;;;;;20485;6834;302703;-77
2023/07/27 10:52:10;;;;;;;2.40;2.20;;;22.80;50.10;;;;;;20561;6834;306098;-80
2023/07/27 10:54:39;;;;;;;3.30;2.30;;;23.30;49.00;;;;;;20555;6834;298327;-77
2023/07/27 10:57:04;;;;;;;1.90;1.80;;;23.60;48.30;;;;;;20735;6834;121820;-78
2023/07/27 10:59:30;;;;;;;2.30;2.10;;;23.60;48.10;;;;;;20672;6834;127060;-75
2023/07/27 11:01:55;;;;;;;3.13;2.17;;;23.50;48.70;;;;;;20531;6834;276951;-78
2023/07/27 11:04:21;;;;;;;3.30;2.30;;;23.80;49.00;;;;;;20522;6834;339942;-75
2023/07/27 11:06:47;;;;;;;2.80;2.03;;;24.20;48.60;;;;;;20744;6834;116895;-75
2023/07/27 11:09:12;;;;;;;1.60;1.60;;;24.40;48.50;;;;;;20748;6834;117005;-77
2023/07/27 11:11:38;;;;;;;2.30;2.10;;;24.30;48.20;;;;;;20503;6834;306453;-75
2023/07/27 11:14:04;;;;;;;1.67;1.57;;;24.70;46.70;;;;;;20749;6834;117564;-74
2023/07/27 11:16:30;;;;;;;1.80;1.70;;;24.60;46.60;;;;;;20527;6834;307479;-75
2023/07/27 11:18:55;;;;;;;2.42;2.00;;;24.90;45.50;;;;;;20742;6834;117032;-75
2023/07/27 11:21:21;;;;;;;2.27;1.90;;;25.00;45.80;;;;;;20742;6834;116918;-77
2023/07/27 11:23:47;;;;;;;1.70;1.60;;;24.80;45.90;;;;;;20432;6832;117609;-75
2023/07/27 11:26:13;;;;;;;1.87;1.77;;;24.70;46.10;;;;;;20752;6833;116871;-74
2023/07/27 11:28:41;;;;;;;1.90;1.80;;;24.60;46.50;;;;;;20755;6833;117874;-77
2023/07/27 11:31:06;;;;;;;2.80;1.80;;;24.60;46.40;;;;;;20738;6833;116982;-74
2023/07/27 11:33:37;;;;;;;1.97;1.77;;;24.60;46.50;;;;;;20716;6833;117828;-74
2023/07/27 11:36:04;;;;;;;1.97;1.80;;;24.50;46.00;;;;;;20738;6834;117717;-74
2023/07/27 11:38:29;;;;;;;2.60;2.00;;;24.60;46.00;;;;;;20748;6834;116900;-74
2023/07/27 11:40:57;;;;;;;2.95;2.15;;;24.60;46.10;;;;;;20544;6834;306991;-74
2023/07/27 11:43:21;;;;;;;3.53;2.17;;;24.90;44.90;;;;;;20738;6834;117011;-75
2023/07/27 11:45:47;;;;;;;2.10;1.90;;;25.10;44.80;;;;;;20386;6834;301363;-76
2023/07/27 11:48:12;;;;;;;1.60;1.60;;;25.30;42.80;;;;;;20743;6834;117988;-73
2023/07/27 11:50:38;;;;;;;3.58;2.10;;;25.30;43.30;;;;;;20537;6834;309467;-73
2023/07/27 11:53:07;;;;;;;3.65;2.00;;;25.40;43.10;;;;;;20743;6834;121254;-73
2023/07/27 11:55:32;;;;;;;2.20;2.00;;;25.20;43.90;;;;;;20468;6834;309103;-73
2023/07/27 11:57:57;;;;;;;2.07;1.87;;;25.20;44.20;;;;;;20695;6834;117495;-72
2023/07/27 12:00:23;;;;;;;1.87;1.77;;;24.90;44.60;;;;;;20743;6834;117122;-72
2023/07/27 12:02:48;;;;;;;3.30;2.00;;;24.60;45.40;;;;;;20709;6834;120269;-72
2023/07/27 12:05:14;;;;;;;2.10;2.00;;;24.30;45.90;;;;;;20735;6834;117098;-73
2023/07/27 12:07:40;;;;;;;3.47;2.10;;;24.00;46.40;;;;;;20502;6834;307568;-72
2023/07/27 12:10:06;;;;;;;2.00;1.90;;;24.10;47.10;;;;;;20744;6834;118024;-73
2023/07/27 12:12:31;;;;;;;3.33;2.10;;;24.00;46.90;;;;;;20723;6834;116742;-74
2023/07/27 12:14:58;;;;;;;2.78;2.40;;;23.90;47.30;;;;;;20537;6834;306485;-74
2023/07/27 12:17:22;;;;;;;2.30;2.20;;;24.00;48.40;;;;;;20721;6834;118124;-76
2023/07/27 12:19:49;;;;;;;2.90;2.30;;;24.00;48.50;;;;;;20533;6834;307446;-77
2023/07/27 12:22:15;;;;;;;2.30;2.17;;;24.30;49.40;;;;;;20536;6834;307474;-73
2023/07/27 12:24:44;;;;;;;2.47;2.30;;;24.30;49.40;;;;;;20538;6834;293055;-74
2023/07/27 12:27:10;;;;;;;2.63;2.43;;;24.30;49.60;;;;;;20729;6834;117650;-73
2023/07/27 12:29:35;;;;;;;2.40;2.30;;;24.30;49.60;;;;;;20495;6834;295947;-74
2023/07/27 12:32:02;;;;;;;3.13;2.20;;;24.40;49.60;;;;;;20507;6834;336316;-74